FW7529 Weather Reports


Display with metric or nautical units.
time (UTC)temp
F
wind
direction
speed
MPH
gust
MPH
rain 1hr
in
rain 24hr
in
rain mn
in
humidity
%
barometer
mb
20220117220113 37 185 3.0 3.0 0.00 0.00 0.00 78 1015.5
20220117215612 37 220 3.0 3.0 0.00 0.00 0.00 78 1015.3
20220117215112 37 268 3.0 5.0 0.00 0.00 0.00 78 1015.2
20220117214612 37 261 3.0 5.0 0.00 0.00 0.00 78 1015.2
20220117214111 37 246 3.0 5.0 0.00 0.00 0.00 78 1015.1
20220117213611 37 259 4.0 5.0 0.00 0.00 0.00 78 1014.6
20220117213109 37 194 3.0 3.0 0.00 0.00 0.00 78 1015.0
20220117212609 37 107 2.0 2.0 0.00 0.00 0.00 78 1014.9
20220117212107 37 139 1.0 1.0 0.00 0.00 0.00 78 1015.1
20220117211606 37 166 1.0 2.0 0.00 0.00 0.00 77 1014.9
20220117211105 37 273 4.0 6.0 0.00 0.00 0.00 77 1014.9
20220117210604 37 159 1.0 2.0 0.00 0.00 0.00 78 1015.0
20220117210103 37 156 3.0 3.0 0.00 0.00 0.00 77 1014.9
20220117205602 37 231 3.0 3.0 0.00 0.00 0.00 77 1014.8
20220117205100 37 143 2.0 3.0 0.00 0.00 0.00 77 1014.8
20220117204558 37 286 3.0 3.0 0.00 0.00 0.00 78 1014.6
20220117204059 37 320 2.0 3.0 0.00 0.00 0.00 77 1014.6
20220117203557 38 136 2.0 3.0 0.00 0.00 0.00 77 1014.8
20220117203057 37 208 2.0 3.0 0.00 0.00 0.00 77 1014.8
20220117202555 38 249 3.0 5.0 0.00 0.00 0.00 76 1014.2
20220117202054 38 262 5.0 6.0 0.00 0.00 0.00 76 1014.2
20220117201553 38 213 2.0 2.0 0.00 0.00 0.00 76 1014.3
20220117201052 38 215 3.0 5.0 0.00 0.00 0.00 76 1013.9
20220117200551 38 176 2.0 3.0 0.00 0.00 0.00 76 1013.8
20220117200050 38 188 1.0 1.0 0.00 0.00 0.00 77 1013.5
20220117195549 38 234 2.0 3.0 0.00 0.00 0.00 77 1013.7
20220117195050 37 306 4.0 6.0 0.00 0.00 0.00 77 1013.6
20220117194550 37 182 3.0 5.0 0.00 0.00 0.00 77 1013.6
20220117194049 37 317 2.0 3.0 0.00 0.00 0.00 77 1013.6
20220117193548 37 169 2.0 2.0 0.00 0.00 0.00 77 1013.5
20220117193046 37 104 3.0 6.0 0.00 0.00 0.00 78 1013.4
20220117192546 38 271 5.0 7.0 0.00 0.00 0.00 77 1013.4
20220117192045 37 57 3.0 3.0 0.00 0.00 0.00 77 1013.3
20220117191545 37 275 5.0 7.0 0.00 0.00 0.00 78 1013.4
20220117191044 37 299 4.0 6.0 0.00 0.00 0.00 78 1013.3
20220117190543 37 119 2.0 3.0 0.00 0.00 0.00 78 1013.4
20220117190043 37 155 2.0 3.0 0.00 0.00 0.00 77 1013.3
20220117185541 37 213 6.0 7.0 0.00 0.00 0.00 77 1013.2
20220117185040 37 195 5.0 6.0 0.00 0.00 0.00 78 1013.3
20220117184539 37 350 4.0 5.0 0.00 0.00 0.00 78 1013.1
20220117184038 37 177 4.0 5.0 0.00 0.00 0.00 77 1013.2
20220117183537 37 156 2.0 2.0 0.00 0.00 0.00 78 1013.1
20220117183035 37 260 5.0 6.0 0.00 0.00 0.00 78 1012.8
20220117182534 37 262 4.0 6.0 0.00 0.00 0.00 78 1013.0
20220117182032 37 341 3.0 3.0 0.00 0.00 0.00 78 1013.1
20220117181531 37 201 3.0 5.0 0.00 0.00 0.00 77 1013.3
20220117181030 37 171 1.0 2.0 0.00 0.00 0.00 78 1013.6
20220117180529 37 190 2.0 3.0 0.00 0.00 0.00 78 1013.7
20220117180027 37 164 2.0 2.0 0.00 0.00 0.00 79 1014.0
20220117175526 37 230 4.0 6.0 0.00 0.00 0.00 80 1013.5
20220117175026 36 175 1.0 2.0 0.00 0.00 0.00 80 1013.2
20220117174524 36 287 3.0 5.0 0.00 0.00 0.00 80 1013.1
20220117174023 36 238 5.0 6.0 0.00 0.00 0.00 83 1013.2
20220117173522 36 240 6.0 7.0 0.00 0.00 0.00 80 1013.3
20220117173020 36 235 3.0 3.0 0.00 0.00 0.00 81 1013.1
20220117172520 36 257 4.0 5.0 0.00 0.00 0.00 80 1013.3
20220117172018 36 282 6.0 7.0 0.00 0.00 0.00 80 1013.5
20220117171518 36 245 7.0 7.0 0.00 0.00 0.00 80 1013.8
20220117171017 36 110 2.0 2.0 0.00 0.00 0.00 80 1013.8
20220117170516 37 140 2.0 3.0 0.00 0.00 0.00 81 1013.5
20220117170016 36 188 2.0 3.0 0.00 0.00 0.00 80 1013.7
20220117165516 37 36 3.0 6.0 0.00 0.00 0.00 79 1013.3
20220117165015 36 259 4.0 6.0 0.00 0.00 0.00 80 1013.3
20220117164516 36 235 7.0 8.0 0.00 0.00 0.00 79 1013.4
20220117164016 36 277 5.0 6.0 0.00 0.00 0.00 79 1013.5
20220117163514 36 313 5.0 6.0 0.00 0.00 0.00 79 1013.4
20220117163013 36 200 3.0 3.0 0.00 0.00 0.00 80 1013.4
20220117162513 36 256 4.0 5.0 0.00 0.00 0.00 79 1013.4
20220117162013 36 180 2.0 3.0 0.00 0.00 0.00 79 1013.5
20220117161512 36 257 5.0 6.0 0.00 0.00 0.00 79 1013.6
20220117161010 36 155 3.0 3.0 0.00 0.00 0.00 79 1013.3
20220117160509 36 214 3.0 3.0 0.00 0.00 0.00 78 1013.1
20220117160008 36 121 1.0 1.0 0.00 0.00 0.00 78 1012.9
20220117155507 36 238 3.0 3.0 0.00 0.00 0.00 78 1012.9
20220117155006 36 185 2.0 2.0 0.00 0.00 0.00 77 1012.9
20220117154505 36 167 3.0 3.0 0.00 0.00 0.00 78 1012.7
20220117154004 36 232 3.0 5.0 0.00 0.00 0.00 77 1012.6
20220117153502 36 222 4.0 5.0 0.00 0.00 0.00 77 1012.6
20220117153001 36 272 6.0 7.0 0.00 0.00 0.00 77 1012.5
20220117152500 36 247 4.0 5.0 0.00 0.00 0.00 77 1012.4
20220117151958 36 226 4.0 6.0 0.00 0.00 0.00 77 1012.2
20220117151458 36 278 4.0 7.0 0.00 0.00 0.00 76 1012.5
20220117150957 36 354 3.0 3.0 0.00 0.00 0.00 77 1012.1
20220117150455 36 237 5.0 6.0 0.00 0.00 0.00 77 1012.2
20220117145954 36 199 3.0 5.0 0.00 0.00 0.00 77 1012.2
20220117145454 36 265 4.0 5.0 0.00 0.00 0.00 77 1011.7
20220117144952 36 191 2.0 2.0 0.00 0.00 0.00 77 1012.0
20220117144452 36 170 1.0 2.0 0.00 0.00 0.00 77 1011.9
20220117143950 36 221 2.0 3.0 0.00 0.00 0.00 77 1011.9
20220117143449 36 235 4.0 5.0 0.00 0.00 0.00 76 1011.6
20220117142947 36 89 2.0 2.0 0.00 0.00 0.00 77 1011.4
20220117142446 37 176 3.0 5.0 0.00 0.00 0.00 76 1011.5
20220117141946 37 167 5.0 7.0 0.00 0.00 0.00 75 1011.2
20220117141445 36 219 5.0 7.0 0.00 0.00 0.00 76 1011.1
20220117140943 36 90 1.0 1.0 0.00 0.00 0.00 77 1011.3
20220117140442 36 196 4.0 5.0 0.00 0.00 0.00 77 1011.0
20220117135941 36 142 1.0 2.0 0.00 0.00 0.00 77 1010.8
20220117135442 36 194 5.0 6.0 0.00 0.00 0.00 77 1011.1
20220117134940 35 205 2.0 3.0 0.00 0.00 0.00 78 1010.9
20220117134440 35 269 5.0 6.0 0.00 0.00 0.00 77 1010.9
20220117133938 35 266 7.0 8.0 0.00 0.00 0.00 77 1010.8
20220117133437 35 203 1.0 2.0 0.00 0.00 0.00 79 1010.7
20220117132936 35 251 4.0 5.0 0.00 0.00 0.00 78 1010.7
20220117132435 35 142 2.0 3.0 0.00 0.00 0.00 80 1010.9
20220117131933 35 263 3.0 3.0 0.00 0.00 0.00 79 1010.9
20220117131432 35 193 2.0 3.0 0.00 0.00 0.00 79 1010.9
20220117130931 34 147 5.0 7.0 0.00 0.00 0.00 80 1010.5
20220117130431 34 197 3.0 3.0 0.00 0.00 0.00 80 1010.5
20220117125930 34 219 3.0 3.0 0.00 0.00 0.00 80 1010.2
20220117125429 34 242 2.0 2.0 0.00 0.00 0.00 80 1010.4
20220117124927 34 246 4.0 5.0 0.00 0.00 0.00 80 1010.0
20220117124426 35 224 4.0 6.0 0.00 0.00 0.00 79 1010.2
20220117123925 34 257 5.0 6.0 0.00 0.00 0.00 81 1010.6
20220117123425 34 163 3.0 3.0 0.00 0.00 0.00 82 1010.4
20220117122924 34 186 5.0 5.0 0.00 0.00 0.00 81 1010.4
20220117122424 34 170 2.0 2.0 0.00 0.00 0.00 81 1010.1
20220117121922 34 226 3.0 5.0 0.00 0.00 0.00 81 1009.8
20220117121422 34 142 1.0 2.0 0.00 0.00 0.00 81 1010.0
20220117120920 34 241 3.0 3.0 0.00 0.00 0.00 81 1010.0
20220117120419 34 229 3.0 3.0 0.00 0.00 0.00 81 1010.1
20220117115918 34 323 4.0 5.0 0.00 0.00 0.00 81 1010.1
20220117115417 34 188 2.0 3.0 0.00 0.00 0.00 81 1009.8
20220117114916 34 239 4.0 5.0 0.00 0.00 0.00 81 1009.6
20220117114415 34 143 2.0 2.0 0.00 0.00 0.00 81 1009.8
20220117113914 34 231 2.0 3.0 0.00 0.00 0.00 81 1009.6
20220117113413 34 276 4.0 7.0 0.00 0.00 0.00 81 1009.6
20220117112912 34 304 5.0 6.0 0.00 0.00 0.00 80 1009.4
20220117112412 34 285 4.0 5.0 0.00 0.00 0.00 80 1009.1
20220117111911 34 149 1.0 1.0 0.00 0.00 0.00 81 1009.3
20220117111410 34 232 4.0 6.0 0.00 0.00 0.00 81 1009.2
20220117110908 34 167 4.0 5.0 0.00 0.00 0.00 81 1009.2
20220117110408 34 216 3.0 7.0 0.00 0.00 0.00 82 1009.1
20220117105907 34 184 4.0 6.0 0.00 0.00 0.00 81 1009.1
20220117105406 34 258 3.0 3.0 0.00 0.00 0.00 81 1009.2
20220117104904 34 151 3.0 3.0 0.00 0.00 0.00 81 1009.1
20220117104403 34 236 4.0 5.0 0.00 0.00 0.00 81 1008.9
20220117103902 34 183 2.0 2.0 0.00 0.00 0.00 82 1008.7
20220117103401 34 130 3.0 5.0 0.00 0.00 0.00 82 1009.0
20220117102859 34 263 4.0 5.0 0.00 0.00 0.00 82 1008.9
20220117102358 34 263 3.0 3.0 0.00 0.00 0.00 81 1008.6
20220117101858 34 130 2.0 2.0 0.00 0.00 0.00 81 1008.7
20220117101357 34 287 2.0 2.0 0.00 0.00 0.00 81 1008.6
20220117100855 34 223 3.0 3.0 0.00 0.00 0.00 81 1008.8
20220117100354 34 271 4.0 6.0 0.00 0.00 0.00 82 1008.9
20220117095852 33 150 1.0 1.0 0.00 0.00 0.00 82 1008.8
20220117095351 33 277 3.0 3.0 0.00 0.00 0.00 82 1008.8
20220117094850 33 303 3.0 3.0 0.00 0.00 0.00 82 1008.7
20220117094349 33 231 5.0 7.0 0.00 0.00 0.00 81 1008.7
20220117093848 33 223 3.0 5.0 0.00 0.00 0.00 82 1008.6
20220117093347 33 154 3.0 5.0 0.00 0.00 0.00 82 1008.7
20220117092846 33 280 4.0 5.0 0.00 0.00 0.00 81 1008.6
20220117092345 33 228 6.0 8.0 0.00 0.00 0.00 81 1008.6
20220117091844 33 167 2.0 2.0 0.00 0.00 0.00 81 1008.5
20220117091343 33 275 4.0 7.0 0.00 0.00 0.00 80 1008.4
20220117090842 34 140 1.0 1.0 0.00 0.00 0.00 81 1008.4
20220117090341 34 268 7.0 8.0 0.00 0.00 0.00 80 1008.3
20220117085840 34 286 4.0 6.0 0.00 0.00 0.00 80 1008.5
20220117085339 34 175 3.0 3.0 0.00 0.00 0.00 83 1008.2
20220117084838 34 187 3.0 3.0 0.00 0.00 0.00 82 1008.4
20220117084338 34 210 4.0 6.0 0.00 0.00 0.00 81 1008.3
20220117083837 34 206 6.0 8.0 0.00 0.00 0.00 82 1008.6
20220117083335 35 229 5.0 7.0 0.00 0.00 0.00 82 1008.6
20220117082834 35 278 4.0 5.0 0.00 0.00 0.00 82 1008.3
20220117082333 35 272 3.0 6.0 0.00 0.00 0.00 83 1008.2
20220117081832 35 229 3.0 3.0 0.00 0.00 0.00 83 1008.1
20220117081332 35 170 2.0 2.0 0.00 0.00 0.00 85 1008.0
20220117080830 35 223 3.0 3.0 0.00 0.00 0.00 85 1008.1
20220117080329 35 227 3.0 5.0 0.00 0.00 0.00 86 1008.0
20220117075829 35 168 2.0 2.0 0.00 0.00 0.00 86 1008.0
20220117075328 35 191 3.0 3.0 0.00 0.00 0.00 84 1007.7
20220117074827 35 185 4.0 5.0 0.00 0.00 0.00 84 1007.7
20220117074327 36 47 2.0 2.0 0.00 0.00 0.00 83 1007.6
20220117073826 36 234 5.0 6.0 0.00 0.00 0.00 85 1007.8
20220117073325 36 293 4.0 5.0 0.00 0.00 0.00 85 1007.4
20220117072825 36 252 4.0 5.0 0.00 0.00 0.00 86 1007.5
20220117072324 36 267 6.0 8.0 0.00 0.00 0.00 86 1007.4
20220117071825 36 224 3.0 3.0 0.00 0.00 0.00 86 1007.4
20220117071324 36 154 1.0 2.0 0.00 0.00 0.00 88 1007.6
20220117070824 36 74 1.0 2.0 0.00 0.00 0.00 87 1007.7
20220117070323 36 236 4.0 7.0 0.00 0.00 0.00 87 1007.4
20220117065822 36 246 3.0 3.0 0.00 0.00 0.00 86 1007.2
20220117065321 36 176 2.0 2.0 0.00 0.00 0.00 86 1007.4
20220117064821 36 287 7.0 9.0 0.00 0.00 0.00 88 1007.1
20220117064320 36 235 3.0 3.0 0.00 0.00 0.00 88 1007.2
20220117063819 36 241 4.0 5.0 0.00 0.00 0.00 88 1007.0
20220117063318 36 250 3.0 6.0 0.00 0.00 0.00 88 1007.1
20220117062818 36 161 2.0 2.0 0.00 0.00 0.00 88 1007.1
20220117062317 36 259 3.0 3.0 0.00 0.00 0.00 89 1007.1
20220117061815 36 268 3.0 3.0 0.00 0.00 0.00 88 1007.1
20220117061314 36 208 5.0 7.0 0.00 0.00 0.00 88 1006.9
20220117060813 36 268 8.0 10.0 0.00 0.00 0.00 89 1007.2
20220117060313 36 222 3.0 5.0 0.00 0.00 0.00 89 1006.8
20220117055812 36 214 4.0 5.0 0.00 0.00 0.00 89 1007.0
20220117055312 36 305 4.0 6.0 0.00 0.00 0.00 89 1006.9
20220117054811 36 271 3.0 5.0 0.00 0.00 0.00 90 1006.8
20220117054311 36 235 4.0 6.0 0.00 0.00 0.00 90 1006.6
20220117053809 36 304 6.0 8.0 0.00 0.00 0.00 90 1006.4
20220117053309 36 146 1.0 1.0 0.00 0.00 0.00 90 1006.5
20220117052807 36 119 3.0 3.0 0.00 0.00 0.00 89 1006.5
20220117052306 36 172 2.0 2.0 0.00 0.00 0.00 89 1006.6
20220117051805 37 166 4.0 5.0 0.00 0.00 0.00 89 1006.6
20220117051304 37 239 3.0 3.0 0.00 0.00 0.00 89 1006.5
20220117050803 37 184 6.0 7.0 0.00 0.00 0.00 88 1006.5
20220117050303 37 291 4.0 6.0 0.00 0.00 0.00 90 1006.5
20220117045802 37 166 6.0 8.0 0.00 1.16 1.16 89 1006.3
20220117045301 37 159 1.0 2.0 0.00 1.16 1.16 91 1006.2
20220117044800 37 167 3.0 3.0 0.00 1.16 1.16 92 1006.3
20220117044300 37 266 2.0 3.0 0.00 1.16 1.16 93 1006.2
20220117043758 36 221 2.0 3.0 0.00 1.16 1.16 94 1006.2
20220117043257 36 187 3.0 3.0 0.00 1.16 1.16 95 1006.0
20220117042755 36 209 3.0 3.0 0.00 1.16 1.16 95 1005.7
20220117042254 36 273 4.0 6.0 0.00 1.16 1.16 95 1006.1
20220117041753 36 226 2.0 3.0 0.07 1.16 1.16 95 1005.7
20220117041252 36 255 5.0 6.0 0.07 1.16 1.16 95 1006.0
20220117040751 37 317 5.0 6.0 0.00 1.15 1.15 95 1005.7
20220117040251 37 195 3.0 3.0 0.00 1.15 1.15 94 1006.0
20220117035750 37 179 3.0 3.0 0.00 1.15 1.15 94 1006.0
20220117035249 37 283 3.0 5.0 0.00 1.15 1.15 94 1005.6
20220117034749 37 261 5.0 7.0 0.00 1.15 1.15 94 1005.5
20220117034248 37 227 4.0 6.0 0.00 1.15 1.15 94 1005.3
20220117033747 37 262 4.0 5.0 0.00 1.15 1.15 94 1005.5
20220117033246 37 292 5.0 7.0 0.00 1.15 1.15 94 1005.4
20220117032745 37 226 3.0 3.0 0.00 1.15 1.15 93 1005.4
20220117032244 37 170 3.0 5.0 0.00 1.15 1.15 94 1005.3
20220117031744 37 118 1.0 1.0 0.00 1.15 1.15 93 1005.4
20220117031244 37 259 5.0 9.0 0.00 1.15 1.15 93 1005.3
20220117030743 37 213 4.0 5.0 0.00 1.15 1.15 93 1005.2
20220117030242 37 252 1.0 2.0 0.00 1.15 1.15 92 1005.3
20220117025743 37 147 5.0 6.0 0.00 1.15 1.15 92 1005.1
20220117025241 37 195 3.0 3.0 0.00 1.15 1.15 93 1005.0
20220117024740 37 99 4.0 6.0 0.00 1.15 1.15 94 1004.8
20220117024240 37 268 3.0 5.0 0.00 1.15 1.15 94 1004.6
20220117023739 36 160 1.0 1.0 0.00 1.15 1.15 95 1004.7
20220117023237 36 169 2.0 3.0 0.00 1.15 1.15 95 1004.6
20220117022737 36 178 2.0 2.0 0.00 1.15 1.15 96 1004.7
20220117022235 36 156 1.0 2.0 0.00 1.15 1.15 96 1004.6
20220117021733 36 225 2.0 2.0 0.00 1.15 1.15 96 1004.6
20220117021232 36 179 1.0 2.0 0.00 1.15 1.15 97 1004.5
20220117020731 35 152 1.0 2.0 0.00 1.15 1.15 97 1004.6
20220117020230 35 182 1.0 2.0 0.00 1.15 1.15 97 1004.3
20220117015730 35 228 4.0 5.0 0.00 1.15 1.15 97 1003.9
20220117015229 35 149 0.0 1.0 0.00 1.15 1.15 96 1004.0
20220117014727 35 320 5.0 7.0 0.00 1.15 1.15 97 1004.2
20220117014226 35 141 0.0 1.0 0.00 1.15 1.15 97 1004.3
20220117013726 35 217 1.0 2.0 0.00 1.15 1.15 97 1004.3
20220117013224 35 224 3.0 3.0 0.00 1.15 1.15 97 1004.1
20220117012723 35 146 1.0 1.0 0.00 1.15 1.15 97 1003.9
20220117012222 35 154 2.0 2.0 0.00 1.15 1.15 97 1003.9
20220117011721 35 186 1.0 2.0 0.00 1.15 1.15 97 1004.0
20220117011220 35 156 2.0 2.0 0.00 1.15 1.15 97 1003.7
20220117010719 35 139 0.0 1.0 0.00 1.15 1.15 97 1003.8
20220117010219 35 149 3.0 3.0 0.00 1.15 1.15 97 1003.8
20220117005718 35 226 3.0 5.0 0.00 1.15 1.15 97 1003.8
20220117005218 35 195 2.0 2.0 0.00 1.15 1.15 97 1004.0
20220117004716 35 149 1.0 1.0 0.00 1.15 1.15 97 1003.8
20220117004215 35 186 2.0 2.0 0.00 1.15 1.15 97 1003.9
20220117003715 35 156 1.0 2.0 0.00 1.15 1.15 97 1003.9
20220117003213 35 180 5.0 7.0 0.00 1.15 1.15 97 1004.0
20220117002712 35 186 2.0 3.0 0.00 1.15 1.15 98 1003.9
20220117002212 35 232 3.0 3.0 0.00 1.15 1.15 98 1003.7
20220117001711 34 182 2.0 2.0 0.00 1.15 1.15 98 1003.5
20220117001210 34 158 1.0 2.0 0.00 1.15 1.15 98 1003.5
20220117000709 34 158 1.0 1.0 0.00 1.15 1.15 97 1003.3
20220117000208 34 225 2.0 2.0 0.00 1.15 1.15 98 1003.3
20220116235707 34 142 2.0 3.0 0.00 1.15 1.15 98 1003.2
20220116235206 34 241 1.0 2.0 0.00 1.15 1.15 98 1003.2
20220116234704 34 173 7.0 8.0 0.00 1.15 1.15 98 1003.3
20220116234203 34 178 2.0 3.0 0.00 1.15 1.15 98 1003.1
20220116233702 34 98 4.0 6.0 0.00 1.15 1.15 98 1002.8
20220116233202 34 99 1.0 1.0 0.00 1.15 1.15 98 1002.9
20220116232702 34 212 4.0 6.0 0.00 1.15 1.15 98 1003.0
20220116232200 34 207 4.0 6.0 0.00 1.15 1.15 98 1003.0
20220116231700 34 227 4.0 6.0 0.04 1.15 1.15 98 1002.7
20220116231159 34 225 4.0 6.0 0.04 1.15 1.15 98 1002.7
20220116230658 34 192 3.0 3.0 0.04 1.15 1.15 98 1002.9
20220116230157 34 147 1.0 2.0 0.00 1.14 1.14 98 1002.9
20220116225656 34 234 3.0 3.0 0.00 1.14 1.14 98 1002.9
20220116225156 34 177 3.0 3.0 0.00 1.14 1.14 98 1002.8
20220116224654 34 161 1.0 2.0 0.00 1.14 1.14 98 1002.6
20220116224154 34 178 2.0 2.0 0.00 1.14 1.14 98 1002.5
20220116223653 34 194 3.0 5.0 0.00 1.14 1.14 99 1002.3
20220116223153 34 134 1.0 2.0 0.00 1.14 1.14 99 1002.3
20220116222652 34 141 2.0 2.0 0.00 1.14 1.14 99 1002.3
20220116222151 34 166 2.0 3.0 0.00 1.14 1.14 98 1002.1
20220116221650 34 159 1.0 1.0 0.00 1.14 1.14 98 1002.3
20220116221150 34 209 3.0 3.0 0.00 1.14 1.14 98 1002.0
20220116220648 34 166 2.0 2.0 0.00 1.14 1.14 98 1002.1